Time;durP1;ratioP1;P1;durP2;ratioP2;P2;SDS_P1;SDS_P2;PMS_P1;PMS_P2;Temp;Humidity;BMP_temperature;BMP_pressure;BME280_temperature;BME280_humidity;BME280_pressure;Samples;Min_cycle;Max_cycle;Signal;HPM_P1;HPM_P2
2022/03/18 00:00:45;;;;;;;;;;;;;;;22.00;17.42;99691.13;4995284;28;1914;-75
2022/03/18 00:03:11;;;;;;;;;;;;;;;22.05;17.26;99676.53;4995571;28;1022;-76
2022/03/18 00:05:36;;;;;;;;;;;;;;;21.87;17.33;99690.75;4995437;28;958;-75
2022/03/18 00:08:02;;;;;;;;;;;;;;;21.59;17.63;99692.34;4994840;28;933;-76
2022/03/18 00:10:29;;;;;;;;;;;;;;;21.53;17.67;99684.66;4994869;28;924;-76
2022/03/18 00:12:54;;;;;;;;;;;;;;;21.43;17.46;99691.13;5009922;28;1009;-75
2022/03/18 00:15:23;;;;;;;;;;;;;;;21.28;17.81;99685.41;5044390;28;1038;-75
2022/03/18 00:17:48;;;;;;;;;;;;;;;21.62;17.75;99682.25;5054244;28;978;-75
2022/03/18 00:20:14;;;;;;;;;;;;;;;21.74;17.52;99684.66;5054139;28;1148;-76
2022/03/18 00:22:40;;;;;;;;;;;;;;;21.25;17.66;99685.44;5054307;28;1987;-76
2022/03/18 00:25:06;;;;;;;;;;;;;;;21.58;17.53;99687.09;5034357;28;1200;-75
2022/03/18 00:27:31;;;;;;;;;;;;;;;21.47;17.51;99689.13;5034257;28;953;-76
2022/03/18 00:29:58;;;;;;;;;;;;;;;21.45;17.62;99683.03;5034050;28;1114;-75
2022/03/18 00:32:26;;;;;;;;;;;;;;;21.65;17.41;99681.41;5020493;28;1746;-75
2022/03/18 00:34:51;;;;;;;;;;;;;;;21.28;17.76;99673.28;5053854;28;1106;-75
2022/03/18 00:37:16;;;;;;;;;;;;;;;21.68;17.41;99682.66;5053227;28;973;-75
2022/03/18 00:39:42;;;;;;;;;;;;;;;22.04;16.91;99675.72;5053543;28;1025;-75
2022/03/18 00:42:09;;;;;;;;;;;;;;;21.99;16.72;99672.50;5053477;28;1968;-75
2022/03/18 00:44:35;;;;;;;;;;;;;;;22.04;16.81;99674.91;5053807;28;1134;-76
2022/03/18 00:47:01;;;;;;;;;;;;;;;21.95;16.88;99666.81;5053771;28;1121;-76
2022/03/18 00:52:14;;;;;;;;;;;;;;;21.26;17.64;99665.19;5053730;28;1015;-75
2022/03/18 00:54:39;;;;;;;;;;;;;;;21.45;17.25;99668.88;5053926;28;1077;-76
2022/03/18 00:57:05;;;;;;;;;;;;;;;21.79;17.03;99669.28;5033742;28;1196;-76
2022/03/18 00:59:31;;;;;;;;;;;;;;;21.96;17.00;99661.97;5033732;28;1025;-76
2022/03/18 01:01:57;;;;;;;;;;;;;;;21.35;17.26;99656.34;5033176;28;1977;-75
2022/03/18 01:04:23;;;;;;;;;;;;;;;21.32;17.49;99660.78;5033551;28;1052;-73
2022/03/18 01:06:49;;;;;;;;;;;;;;;21.56;17.08;99658.38;5033139;28;870;-73
2022/03/18 01:09:15;;;;;;;;;;;;;;;21.89;17.00;99664.81;5033010;28;1337;-73
2022/03/18 01:11:40;;;;;;;;;;;;;;;21.68;16.91;99657.97;5033440;28;1138;-73
2022/03/18 01:14:06;;;;;;;;;;;;;;;21.35;17.34;99666.84;5033429;28;1043;-73
2022/03/18 01:16:31;;;;;;;;;;;;;;;21.73;16.90;99671.72;5033178;28;1070;-73
2022/03/18 01:18:57;;;;;;;;;;;;;;;21.74;16.85;99673.31;5032967;28;1138;-73
2022/03/18 01:21:22;;;;;;;;;;;;;;;22.05;16.50;99670.84;5033084;28;2040;-73
2022/03/18 01:23:48;;;;;;;;;;;;;;;22.02;16.44;99663.16;5033228;28;975;-75
2022/03/18 01:26:13;;;;;;;;;;;;;;;21.59;16.81;99664.03;5033054;28;908;-73
2022/03/18 01:28:39;;;;;;;;;;;;;;;21.39;17.14;99685.47;5062811;28;932;-74
2022/03/18 01:31:04;;;;;;;;;;;;;;;21.42;17.14;99666.88;5073440;28;982;-73
2022/03/18 01:33:30;;;;;;;;;;;;;;;21.85;16.64;99668.44;5072916;28;1023;-73
2022/03/18 01:35:55;;;;;;;;;;;;;;;21.95;16.69;99655.50;5073085;28;1071;-73
2022/03/18 01:38:21;;;;;;;;;;;;;;;21.83;16.56;99659.56;5071692;28;1024;-73
2022/03/18 01:40:46;;;;;;;;;;;;;;;21.39;17.00;99664.81;5052779;28;1906;-73
2022/03/18 01:43:12;;;;;;;;;;;;;;;21.28;17.17;99668.44;5053155;28;1101;-73
2022/03/18 01:45:37;;;;;;;;;;;;;;;21.78;16.65;99664.84;5053136;28;1088;-73
2022/03/18 01:48:03;;;;;;;;;;;;;;;22.03;16.52;99667.63;5052597;28;1071;-74
2022/03/18 01:50:30;;;;;;;;;;;;;;;21.48;17.08;99665.25;5056331;28;1447;-73
2022/03/18 01:52:55;;;;;;;;;;;;;;;21.20;17.30;99655.50;5056846;28;1115;-73
2022/03/18 01:55:21;;;;;;;;;;;;;;;21.87;16.40;99653.09;5017127;28;1013;-73
2022/03/18 01:57:46;;;;;;;;;;;;;;;21.96;16.50;99656.28;5017360;28;964;-73
2022/03/18 02:00:12;;;;;;;;;;;;;;;21.97;16.34;99657.94;5017292;28;1140;-73
2022/03/18 02:02:38;;;;;;;;;;;;;;;21.57;16.80;99645.81;5017049;28;1977;-73
2022/03/18 02:05:05;;;;;;;;;;;;;;;21.12;17.31;99656.69;5017063;28;1034;-73
2022/03/18 02:07:31;;;;;;;;;;;;;;;21.62;16.76;99659.59;5017081;28;1041;-74
2022/03/18 02:09:56;;;;;;;;;;;;;;;22.09;16.14;99660.31;5000361;28;1125;-74
2022/03/18 02:12:21;;;;;;;;;;;;;;;21.75;16.34;99657.94;5031824;28;1039;-73
2022/03/18 02:14:47;;;;;;;;;;;;;;;21.43;16.60;99663.63;5036681;28;991;-73
2022/03/18 02:17:13;;;;;;;;;;;;;;;21.23;16.81;99657.50;5036748;28;1037;-73
2022/03/18 02:19:39;;;;;;;;;;;;;;;21.55;16.74;99666.06;5016508;28;1120;-73
2022/03/18 02:22:05;;;;;;;;;;;;;;;22.03;16.32;99661.97;5016536;28;1972;-73
2022/03/18 02:24:31;;;;;;;;;;;;;;;22.07;16.12;99665.56;5016375;28;1045;-73
2022/03/18 02:26:56;;;;;;;;;;;;;;;21.66;16.32;99668.91;5031643;28;1074;-73
2022/03/18 02:29:22;;;;;;;;;;;;;;;21.36;16.66;99663.63;5019417;28;1196;-73
2022/03/18 02:31:47;;;;;;;;;;;;;;;21.26;16.86;99667.22;5036313;28;991;-73
2022/03/18 02:34:13;;;;;;;;;;;;;;;21.74;16.29;99676.16;5036487;28;885;-73
2022/03/18 02:36:39;;;;;;;;;;;;;;;21.84;16.48;99683.03;5036306;28;998;-74
2022/03/18 02:39:04;;;;;;;;;;;;;;;21.90;16.16;99686.28;5036290;28;1040;-73
2022/03/18 02:41:30;;;;;;;;;;;;;;;21.31;16.80;99693.16;4996744;28;1906;-74
2022/03/18 02:43:55;;;;;;;;;;;;;;;21.25;17.10;99691.09;4996864;28;1040;-73
2022/03/18 02:46:21;;;;;;;;;;;;;;;21.55;16.57;99693.56;4996734;28;1055;-73
2022/03/18 02:48:47;;;;;;;;;;;;;;;21.79;16.31;99701.25;4996508;28;1048;-73
2022/03/18 02:51:13;;;;;;;;;;;;;;;22.08;16.26;99698.41;5025536;28;1295;-74
2022/03/18 02:53:38;;;;;;;;;;;;;;;21.51;16.74;99698.44;5035825;28;1062;-73
2022/03/18 02:56:04;;;;;;;;;;;;;;;21.26;16.94;99707.66;5035953;28;1060;-74
2022/03/18 02:58:30;;;;;;;;;;;;;;;21.19;16.78;99709.66;5035732;28;1073;-73
2022/03/18 03:00:56;;;;;;;;;;;;;;;21.60;16.27;99712.97;5034683;28;1971;-74
2022/03/18 03:03:21;;;;;;;;;;;;;;;21.96;16.16;99708.13;5052198;28;1454;-73
2022/03/18 03:08:33;;;;;;;;;;;;;;;21.44;16.80;99704.06;5035705;28;1037;-74
2022/03/18 03:10:59;;;;;;;;;;;;;;;21.00;17.10;99685.38;5035777;28;1211;-73
2022/03/18 03:13:24;;;;;;;;;;;;;;;21.44;16.89;99710.53;5035265;28;1022;-73
2022/03/18 03:15:50;;;;;;;;;;;;;;;21.81;16.37;99712.16;5035677;28;1078;-74
2022/03/18 03:18:16;;;;;;;;;;;;;;;21.97;16.31;99725.97;5039985;28;1051;-73
2022/03/18 03:20:41;;;;;;;;;;;;;;;21.43;16.52;99720.25;5054961;28;1971;-73
2022/03/18 03:23:06;;;;;;;;;;;;;;;21.37;16.64;99729.56;5057269;28;1003;-73
2022/03/18 03:25:32;;;;;;;;;;;;;;;21.33;17.06;99732.38;5057486;28;983;-73
2022/03/18 03:27:57;;;;;;;;;;;;;;;21.70;16.59;99736.88;5057905;28;935;-73
2022/03/18 03:30:23;;;;;;;;;;;;;;;22.02;16.40;99743.38;5057392;28;923;-73
2022/03/18 03:32:49;;;;;;;;;;;;;;;21.94;16.46;99746.59;5058022;28;970;-73
2022/03/18 03:35:15;;;;;;;;;;;;;;;21.44;16.82;99743.72;5057896;28;893;-73
2022/03/18 03:37:41;;;;;;;;;;;;;;;21.24;16.96;99741.25;5057401;28;936;-73
2022/03/18 03:40:06;;;;;;;;;;;;;;;21.44;16.95;99740.88;5057650;28;1315;-73
2022/03/18 03:42:32;;;;;;;;;;;;;;;21.72;16.79;99742.97;5057225;28;1987;-73
2022/03/18 03:44:57;;;;;;;;;;;;;;;21.83;16.41;99744.56;5057513;28;969;-74
2022/03/18 03:47:23;;;;;;;;;;;;;;;21.80;16.42;99751.03;5074806;28;1398;-74
2022/03/18 03:49:48;;;;;;;;;;;;;;;21.56;16.58;99752.66;5058110;28;990;-73
2022/03/18 03:52:13;;;;;;;;;;;;;;;21.13;17.12;99753.72;5074834;28;999;-73
2022/03/18 03:54:40;;;;;;;;;;;;;;;21.09;17.20;99762.22;5058012;28;1001;-74
2022/03/18 03:57:05;;;;;;;;;;;;;;;21.53;17.02;99763.97;5074986;28;967;-73
2022/03/18 03:59:31;;;;;;;;;;;;;;;21.70;16.75;99757.50;5074842;28;925;-74
2022/03/18 04:01:57;;;;;;;;;;;;;;;21.83;16.76;99761.56;5074740;28;1914;-73
2022/03/18 04:04:23;;;;;;;;;;;;;;;21.92;16.56;99764.00;5074657;28;1034;-73
2022/03/18 04:06:49;;;;;;;;;;;;;;;21.27;17.15;99771.56;5057548;28;978;-73
2022/03/18 04:09:15;;;;;;;;;;;;;;;20.97;17.61;99782.38;5074047;28;1667;-73
2022/03/18 04:11:41;;;;;;;;;;;;;;;21.04;17.34;99776.75;5074036;28;1004;-73
2022/03/18 04:14:06;;;;;;;;;;;;;;;21.69;16.72;99778.56;5074032;28;988;-73
2022/03/18 04:16:31;;;;;;;;;;;;;;;22.00;16.18;99776.94;5074107;28;1017;-73
2022/03/18 04:18:57;;;;;;;;;;;;;;;21.48;16.77;99784.19;5061099;28;1278;-74
2022/03/18 04:21:22;;;;;;;;;;;;;;;21.30;16.95;99779.31;5056687;28;1976;-73
2022/03/18 04:23:48;;;;;;;;;;;;;;;21.63;16.93;99780.19;5056581;28;955;-73
2022/03/18 04:26:13;;;;;;;;;;;;;;;21.95;16.58;99780.19;5056393;28;858;-74
2022/03/18 04:28:39;;;;;;;;;;;;;;;21.46;17.08;99783.78;5074113;28;1084;-74
2022/03/18 04:31:04;;;;;;;;;;;;;;;21.29;16.96;99783.28;5074209;28;1092;-74
2022/03/18 04:33:30;;;;;;;;;;;;;;;21.40;17.13;99785.38;5074522;28;971;-74
2022/03/18 04:35:55;;;;;;;;;;;;;;;21.68;16.74;99793.13;5074073;28;1000;-74
2022/03/18 04:38:20;;;;;;;;;;;;;;;21.93;16.55;99796.00;5074020;28;1003;-73
2022/03/18 04:40:46;;;;;;;;;;;;;;;21.83;16.56;99795.56;5073982;28;1902;-74
2022/03/18 04:43:11;;;;;;;;;;;;;;;21.52;16.78;99797.16;5073801;28;1032;-74
2022/03/18 04:45:37;;;;;;;;;;;;;;;21.22;17.01;99800.28;5073409;28;1966;-73
2022/03/18 04:48:03;;;;;;;;;;;;;;;21.03;17.35;99804.22;5073406;28;1589;-74
2022/03/18 04:50:29;;;;;;;;;;;;;;;21.46;16.90;99797.94;5073586;28;1000;-73
2022/03/18 04:52:54;;;;;;;;;;;;;;;21.77;16.39;99802.88;5073630;28;1009;-74
2022/03/18 04:55:20;;;;;;;;;;;;;;;21.93;16.30;99805.31;5073472;28;1097;-74
2022/03/18 04:57:45;;;;;;;;;;;;;;;22.04;16.23;99806.13;5073276;28;985;-74
2022/03/18 05:00:12;;;;;;;;;;;;;;;21.36;16.86;99804.41;5077292;28;2048;-74
2022/03/18 05:02:37;;;;;;;;;;;;;;;21.14;17.11;99809.13;5093945;28;1886;-74
2022/03/18 05:05:04;;;;;;;;;;;;;;;21.41;16.83;99806.84;5091911;28;1930;-74
2022/03/18 05:07:29;;;;;;;;;;;;;;;21.78;16.33;99815.00;5108819;28;975;-74
2022/03/18 05:09:56;;;;;;;;;;;;;;;21.96;16.40;99804.47;5075941;28;993;-74
2022/03/18 05:12:21;;;;;;;;;;;;;;;21.48;16.61;99813.31;5075777;28;966;-74
2022/03/18 05:14:46;;;;;;;;;;;;;;;21.24;16.79;99826.19;5075334;28;1174;-74
2022/03/18 05:17:12;;;;;;;;;;;;;;;21.22;16.74;99822.91;5065044;28;2001;-74
2022/03/18 05:19:37;;;;;;;;;;;;;;;21.63;16.54;99814.16;5059377;28;1717;-74
2022/03/18 05:22:03;;;;;;;;;;;;;;;21.89;16.14;99820.69;5058329;28;1946;-74
2022/03/18 05:24:29;;;;;;;;;;;;;;;22.00;16.00;99821.50;5075580;28;893;-74
2022/03/18 05:26:55;;;;;;;;;;;;;;;21.64;16.38;99827.13;5064287;28;2094;-74
2022/03/18 05:29:20;;;;;;;;;;;;;;;21.21;16.94;99829.78;5087994;28;830;-74
2022/03/18 05:31:46;;;;;;;;;;;;;;;20.93;16.96;99838.13;5093283;28;1013;-74
2022/03/18 05:34:12;;;;;;;;;;;;;;;22.16;16.05;99824.78;5059696;28;1012;-74
2022/03/18 05:36:38;;;;;;;;;;;;;;;21.98;15.86;99824.75;5053376;28;969;-74
2022/03/18 05:39:04;;;;;;;;;;;;;;;21.28;16.56;99837.50;5064127;28;1831;-74
2022/03/18 05:41:29;;;;;;;;;;;;;;;21.24;16.93;99831.84;5039467;28;1975;-74
2022/03/18 05:43:55;;;;;;;;;;;;;;;21.46;16.73;99831.94;5073208;28;1017;-74
2022/03/18 05:46:20;;;;;;;;;;;;;;;21.84;15.95;99842.53;5073225;28;977;-73
2022/03/18 05:48:46;;;;;;;;;;;;;;;21.94;16.08;99840.94;5072221;28;982;-74
2022/03/18 05:51:12;;;;;;;;;;;;;;;21.44;16.75;99845.66;5073083;28;1000;-74
2022/03/18 05:53:38;;;;;;;;;;;;;;;21.23;16.66;99852.84;5073046;28;907;-74
2022/03/18 05:58:48;;;;;;;;;;;;;;;21.72;16.50;99842.94;5072895;28;1073;-74
2022/03/18 06:01:15;;;;;;;;;;;;;;;21.98;16.20;99864.44;5072609;28;1971;-74
2022/03/18 06:03:40;;;;;;;;;;;;;;;21.97;16.15;99850.66;5020877;28;2860;-74
2022/03/18 06:06:06;;;;;;;;;;;;;;;21.36;16.42;99852.53;5056702;28;1885;-74
2022/03/18 06:14:00;;;;;;;;;;;;;;;21.71;16.40;99846.97;5072396;28;1045;-74
2022/03/18 06:16:25;;;;;;;;;;;;;;;21.84;16.09;99841.72;5073104;28;1008;-74
2022/03/18 06:18:51;;;;;;;;;;;;;;;21.55;16.58;99855.00;5062119;28;1065;-74
2022/03/18 06:21:17;;;;;;;;;;;;;;;21.07;17.07;99856.00;5072197;28;1906;-74
2022/03/18 06:23:43;;;;;;;;;;;;;;;21.39;16.75;99855.34;5032438;28;1350;-74
2022/03/18 06:26:10;;;;;;;;;;;;;;;21.83;16.04;99849.41;4999894;28;1131;-74
2022/03/18 06:28:35;;;;;;;;;;;;;;;22.07;15.70;99855.50;5032472;28;988;-74
2022/03/18 06:31:02;;;;;;;;;;;;;;;21.65;16.34;99848.56;5031938;28;1892;-73
2022/03/18 06:33:27;;;;;;;;;;;;;;;21.38;16.70;99858.59;5016134;28;1663;-74
2022/03/18 06:35:53;;;;;;;;;;;;;;;21.05;16.75;99866.13;5016786;28;2115;-74
2022/03/18 06:38:18;;;;;;;;;;;;;;;21.67;16.53;99871.66;5036383;28;1047;-74
2022/03/18 06:40:45;;;;;;;;;;;;;;;21.80;16.23;99861.53;4998092;28;1976;-73
2022/03/18 06:43:12;;;;;;;;;;;;;;;22.06;16.01;99860.38;5014164;28;2090;-74
2022/03/18 06:45:37;;;;;;;;;;;;;;;21.56;16.36;99860.28;5051599;28;977;-74
2022/03/18 06:48:03;;;;;;;;;;;;;;;21.35;16.44;99870.72;5056076;28;946;-74
2022/03/18 06:50:28;;;;;;;;;;;;;;;21.29;16.60;99878.75;5039173;28;1214;-74
2022/03/18 06:52:54;;;;;;;;;;;;;;;21.70;16.37;99873.66;5040798;28;944;-74
2022/03/18 06:55:19;;;;;;;;;;;;;;;21.83;16.28;99868.44;5063047;28;943;-74
2022/03/18 06:57:45;;;;;;;;;;;;;;;21.94;16.04;99874.13;5076122;28;1747;-74
2022/03/18 07:00:10;;;;;;;;;;;;;;;21.49;16.52;99874.41;5078058;28;989;-74
2022/03/18 07:02:37;;;;;;;;;;;;;;;21.20;16.75;99872.66;5078349;28;1914;-74
2022/03/18 07:05:03;;;;;;;;;;;;;;;21.14;16.78;99877.91;5078269;28;967;-74
2022/03/18 07:07:29;;;;;;;;;;;;;;;21.66;16.25;99864.38;5078186;28;922;-74
2022/03/18 07:09:54;;;;;;;;;;;;;;;21.84;15.91;99875.72;5078300;28;952;-74
2022/03/18 07:12:20;;;;;;;;;;;;;;;22.03;15.88;99866.06;5092327;28;1970;-74
2022/03/18 07:14:45;;;;;;;;;;;;;;;22.06;15.77;99876.56;5058378;28;895;-74
2022/03/18 07:19:55;;;;;;;;;;;;;;;21.40;16.60;99878.81;5070078;28;1031;-74
2022/03/18 07:22:20;;;;;;;;;;;;;;;21.31;16.56;99887.69;5072039;28;1999;-74
2022/03/18 07:24:46;;;;;;;;;;;;;;;21.56;16.51;99893.47;5055153;28;1088;-74
2022/03/18 07:27:11;;;;;;;;;;;;;;;21.64;16.26;99878.09;5014670;28;2221;-74
2022/03/18 07:29:37;;;;;;;;;;;;;;;22.05;15.80;99883.47;5015324;28;1052;-74
2022/03/18 07:32:03;;;;;;;;;;;;;;;21.53;16.35;99891.44;5015359;28;1027;-74
2022/03/18 07:34:29;;;;;;;;;;;;;;;21.35;16.47;99884.88;5015549;28;912;-74
2022/03/18 07:36:54;;;;;;;;;;;;;;;21.37;16.47;99888.94;5015529;28;1009;-74
2022/03/18 07:39:20;;;;;;;;;;;;;;;21.68;16.14;99878.94;5013640;28;1763;-74
2022/03/18 07:41:45;;;;;;;;;;;;;;;22.04;15.90;99876.97;5015333;28;1963;-74
2022/03/18 07:44:11;;;;;;;;;;;;;;;22.10;15.81;99894.41;5015588;28;1052;-74
2022/03/18 07:46:37;;;;;;;;;;;;;;;21.84;15.77;99870.88;5014745;28;1025;-74
2022/03/18 07:49:02;;;;;;;;;;;;;;;21.49;16.12;99884.94;5015261;28;1101;-74
2022/03/18 07:51:30;;;;;;;;;;;;;;;21.35;16.32;99887.69;5012974;28;2020;-74
2022/03/18 07:53:56;;;;;;;;;;;;;;;21.71;15.94;99878.16;4995221;28;1896;-74
2022/03/18 07:56:22;;;;;;;;;;;;;;;21.90;15.93;99884.66;5010220;28;1019;-74
2022/03/18 07:58:47;;;;;;;;;;;;;;;21.91;15.58;99880.59;5035531;28;1681;-74
2022/03/18 08:01:13;;;;;;;;;;;;;;;21.43;16.25;99880.88;5058788;28;1989;-73
2022/03/18 08:03:38;;;;;;;;;;;;;;;21.26;16.54;99880.38;5077037;28;919;-74
2022/03/18 08:06:04;;;;;;;;;;;;;;;21.79;15.65;99874.09;5055215;28;2096;-74
2022/03/18 08:08:30;;;;;;;;;;;;;;;21.97;15.72;99873.34;5036748;28;992;-74
2022/03/18 08:10:56;;;;;;;;;;;;;;;22.11;15.37;99870.53;5037318;28;1083;-74
2022/03/18 08:13:21;;;;;;;;;;;;;;;21.79;15.43;99873.28;5054293;28;990;-74
2022/03/18 08:15:47;;;;;;;;;;;;;;;21.35;15.98;99870.72;5040897;28;996;-74
2022/03/18 08:18:12;;;;;;;;;;;;;;;21.25;16.34;99870.25;5070232;28;2002;-74
2022/03/18 08:20:41;;;;;;;;;;;;;;;21.60;15.93;99882.94;5074109;28;1122;-74
2022/03/18 08:23:09;;;;;;;;;;;;;;;21.92;15.38;99882.25;5057573;28;1917;-74
2022/03/18 08:25:35;;;;;;;;;;;;;;;21.99;15.55;99883.03;5073921;28;1022;-74
2022/03/18 08:28:00;;;;;;;;;;;;;;;21.92;15.24;99873.75;5039905;28;2367;-74
2022/03/18 08:30:26;;;;;;;;;;;;;;;21.10;16.17;99887.56;5054199;28;941;-74
2022/03/18 08:32:52;;;;;;;;;;;;;;;21.25;16.04;99884.41;4994562;28;1193;-74
2022/03/18 08:35:17;;;;;;;;;;;;;;;21.66;15.91;99895.53;4994602;28;982;-74
2022/03/18 08:37:58;;;;;;;;;;;;;;;21.89;15.57;99880.19;4976407;28;1839;-74
2022/03/18 08:40:26;;;;;;;;;;;;;;;21.98;15.54;99897.63;4975075;28;1106;-74
2022/03/18 08:42:52;;;;;;;;;;;;;;;22.10;15.24;99878.22;4975003;28;1914;-74
2022/03/18 08:45:18;;;;;;;;;;;;;;;21.41;15.96;99880.47;4957879;28;972;-74
2022/03/18 08:47:44;;;;;;;;;;;;;;;21.31;16.03;99888.50;4955773;29;994;-74
2022/03/18 08:50:09;;;;;;;;;;;;;;;21.47;15.77;99884.53;4955737;29;1026;-74
2022/03/18 08:52:35;;;;;;;;;;;;;;;21.96;15.59;99888.69;4965194;28;1947;-74
2022/03/18 08:55:00;;;;;;;;;;;;;;;22.04;15.45;99879.00;4975090;28;1142;-74
2022/03/18 08:57:28;;;;;;;;;;;;;;;21.92;15.36;99887.91;4974796;28;886;-74
2022/03/18 08:59:57;;;;;;;;;;;;;;;21.24;16.11;99891.28;4973901;28;1152;-74
2022/03/18 09:02:22;;;;;;;;;;;;;;;21.22;16.08;99890.84;4992122;28;1914;-74
2022/03/18 09:04:48;;;;;;;;;;;;;;;21.78;15.33;99883.81;5028863;28;1124;-74
2022/03/18 09:07:14;;;;;;;;;;;;;;;21.83;15.35;99876.94;5053127;28;1752;-74
2022/03/18 09:09:39;;;;;;;;;;;;;;;22.12;15.26;99868.50;5073524;28;941;-74
2022/03/18 09:12:05;;;;;;;;;;;;;;;21.49;15.86;99890.59;5073329;28;1067;-74
2022/03/18 09:14:31;;;;;;;;;;;;;;;21.32;15.72;99890.13;5073513;28;957;-74
2022/03/18 09:16:56;;;;;;;;;;;;;;;21.25;16.08;99889.28;5071092;28;1744;-74
2022/03/18 09:19:23;;;;;;;;;;;;;;;21.62;15.75;99880.53;5073268;28;1100;-74
2022/03/18 09:21:49;;;;;;;;;;;;;;;21.77;15.47;99893.53;5060587;28;2143;-74
2022/03/18 09:24:14;;;;;;;;;;;;;;;22.01;15.07;99896.81;5052872;28;995;-74
2022/03/18 09:26:40;;;;;;;;;;;;;;;21.90;15.12;99907.31;5061874;28;1965;-74
2022/03/18 09:29:06;;;;;;;;;;;;;;;21.50;15.39;99886.53;5056975;28;995;-74
2022/03/18 09:31:31;;;;;;;;;;;;;;;21.28;15.94;99886.44;5075660;28;904;-74
2022/03/18 09:33:57;;;;;;;;;;;;;;;21.59;15.69;99889.81;5075572;28;942;-74
2022/03/18 09:36:23;;;;;;;;;;;;;;;21.80;15.23;99875.72;5071042;28;1728;-74
2022/03/18 09:38:49;;;;;;;;;;;;;;;21.75;15.53;99884.59;5055467;28;1759;-74
2022/03/18 09:41:15;;;;;;;;;;;;;;;21.98;15.21;99886.28;5055453;28;1898;-74
2022/03/18 09:43:40;;;;;;;;;;;;;;;21.43;15.73;99897.84;5086646;28;979;-74
2022/03/18 09:46:09;;;;;;;;;;;;;;;21.24;16.03;99894.13;5059632;28;1714;-75
2022/03/18 09:48:34;;;;;;;;;;;;;;;21.50;15.38;99900.72;5075742;28;926;-74
2022/03/18 09:51:00;;;;;;;;;;;;;;;21.81;15.20;99877.34;5075746;28;922;-74
2022/03/18 09:53:25;;;;;;;;;;;;;;;21.92;15.25;99883.03;5075729;28;910;-74
2022/03/18 09:55:54;;;;;;;;;;;;;;;22.06;15.22;99888.72;5108128;28;953;-74
2022/03/18 09:58:19;;;;;;;;;;;;;;;21.52;15.51;99903.97;5069324;28;1993;-74
2022/03/18 10:00:45;;;;;;;;;;;;;;;21.29;15.72;99902.22;5054889;28;1121;-74
2022/03/18 10:03:16;;;;;;;;;;;;;;;21.36;15.88;99892.97;5055074;28;1974;-74
2022/03/18 10:05:49;;;;;;;;;;;;;;;21.88;15.19;99870.09;5055457;28;960;-74
2022/03/18 10:08:15;;;;;;;;;;;;;;;22.02;15.23;99887.09;5072916;28;1148;-74
2022/03/18 10:10:47;;;;;;;;;;;;;;;22.08;15.19;99896.84;5058236;28;995;-74
2022/03/18 10:13:16;;;;;;;;;;;;;;;21.42;15.84;99899.88;5052877;28;1721;-74
2022/03/18 10:15:42;;;;;;;;;;;;;;;21.42;15.51;99899.06;5067457;28;2090;-74
2022/03/18 10:18:09;;;;;;;;;;;;;;;21.65;15.66;99899.56;5076756;28;1032;-74
2022/03/18 10:20:36;;;;;;;;;;;;;;;21.83;15.31;99897.59;5076110;28;1206;-74
2022/03/18 10:23:03;;;;;;;;;;;;;;;21.84;15.42;99887.88;5056022;28;2731;-74
2022/03/18 10:25:36;;;;;;;;;;;;;;;21.99;14.88;99885.88;5056455;28;1000;-74
2022/03/18 10:28:02;;;;;;;;;;;;;;;21.54;15.42;99902.34;5056178;28;981;-74
2022/03/18 10:30:28;;;;;;;;;;;;;;;21.30;15.90;99898.22;5023114;28;988;-73
2022/03/18 10:32:53;;;;;;;;;;;;;;;21.24;15.95;99894.13;5056205;28;1059;-74
2022/03/18 10:38:35;;;;;;;;;;;;;;;21.89;15.28;99883.03;4973709;28;1097;-73
2022/03/18 10:41:07;;;;;;;;;;;;;;;21.78;15.20;99889.50;4967384;28;2308;-74
2022/03/18 10:43:51;;;;;;;;;;;;;;;21.34;15.89;99898.22;4957981;29;1003;-74
2022/03/18 10:46:16;;;;;;;;;;;;;;;21.24;16.03;99893.28;4957999;29;955;-74
2022/03/18 10:48:42;;;;;;;;;;;;;;;21.56;15.60;99893.47;4957689;28;1064;-74
2022/03/18 10:51:07;;;;;;;;;;;;;;;21.84;15.20;99882.22;4941639;29;1315;-74
2022/03/18 10:53:34;;;;;;;;;;;;;;;21.89;15.30;99874.53;4932476;29;952;-74
2022/03/18 10:56:01;;;;;;;;;;;;;;;21.95;15.13;99875.75;4919341;29;2188;-74
2022/03/18 10:58:29;;;;;;;;;;;;;;;21.52;15.30;99898.31;4919573;29;1104;-74
2022/03/18 11:00:56;;;;;;;;;;;;;;;21.23;15.64;99886.00;4919610;29;1891;-73
2022/03/18 11:03:22;;;;;;;;;;;;;;;21.74;15.20;99876.50;4919204;29;1019;-74
2022/03/18 11:05:49;;;;;;;;;;;;;;;21.90;15.15;99893.16;4919654;29;921;-74
2022/03/18 11:08:21;;;;;;;;;;;;;;;21.88;15.25;99892.75;4919393;29;1075;-74
2022/03/18 11:13:32;;;;;;;;;;;;;;;21.16;15.95;99891.66;4922872;28;1015;-74
2022/03/18 11:15:58;;;;;;;;;;;;;;;21.27;15.87;99893.31;4980169;28;1308;-74
2022/03/18 11:18:25;;;;;;;;;;;;;;;21.74;15.24;99900.00;4996283;28;1114;-74
2022/03/18 11:20:51;;;;;;;;;;;;;;;21.82;14.96;99890.31;5017212;28;1633;-74
2022/03/18 11:23:17;;;;;;;;;;;;;;;21.90;15.10;99884.66;5034404;28;1910;-74
2022/03/18 11:25:46;;;;;;;;;;;;;;;21.55;15.71;99891.81;5094648;28;1005;-74
2022/03/18 11:28:14;;;;;;;;;;;;;;;21.13;15.73;99910.22;5055204;28;1065;-74
2022/03/18 11:30:41;;;;;;;;;;;;;;;21.37;15.52;99893.78;5015491;28;1024;-74
2022/03/18 11:33:09;;;;;;;;;;;;;;;21.77;15.27;99899.19;5015235;28;920;-74
2022/03/18 11:35:53;;;;;;;;;;;;;;;21.97;15.02;99901.69;4998129;28;1571;-74
2022/03/18 11:38:34;;;;;;;;;;;;;;;21.92;15.24;99910.59;4995863;28;946;-74
2022/03/18 11:41:01;;;;;;;;;;;;;;;21.48;15.67;99908.81;5012223;28;1952;-74
2022/03/18 11:43:41;;;;;;;;;;;;;;;21.12;15.79;99902.13;4998922;28;956;-74
2022/03/18 11:46:12;;;;;;;;;;;;;;;21.52;15.70;99893.44;5015140;28;886;-74
2022/03/18 11:48:39;;;;;;;;;;;;;;;21.93;15.35;99879.00;5015159;28;1027;-74
2022/03/18 11:51:24;;;;;;;;;;;;;;;22.03;15.09;99877.41;5012543;28;1116;-74
2022/03/18 11:53:54;;;;;;;;;;;;;;;21.47;15.45;99890.19;4955406;29;2083;-74
2022/03/18 11:56:24;;;;;;;;;;;;;;;21.29;15.57;99902.22;4956316;28;1796;-73
2022/03/18 11:58:49;;;;;;;;;;;;;;;21.85;15.41;99885.84;4963162;28;1049;-74
2022/03/18 12:01:33;;;;;;;;;;;;;;;22.03;15.08;99885.91;4989177;28;1971;-74
2022/03/18 12:03:59;;;;;;;;;;;;;;;21.92;15.07;99893.56;5014670;28;1194;-74
2022/03/18 12:06:24;;;;;;;;;;;;;;;21.52;15.39;99884.16;5015311;28;1046;-74
2022/03/18 12:08:51;;;;;;;;;;;;;;;21.33;15.60;99905.09;5014964;28;996;-74
2022/03/18 12:11:33;;;;;;;;;;;;;;;21.52;15.50;99895.47;5014434;28;1990;-74
2022/03/18 12:13:59;;;;;;;;;;;;;;;21.84;15.29;99887.06;5014757;28;1115;-74
2022/03/18 12:16:24;;;;;;;;;;;;;;;21.92;14.96;99891.56;4966062;28;1056;-74
2022/03/18 12:18:53;;;;;;;;;;;;;;;21.67;15.25;99888.66;5014574;28;1274;-74
2022/03/18 12:21:31;;;;;;;;;;;;;;;21.44;15.77;99890.97;5014589;28;1899;-74
2022/03/18 12:24:06;;;;;;;;;;;;;;;21.42;15.46;99913.25;5014558;28;1015;-74
2022/03/18 12:26:33;;;;;;;;;;;;;;;21.81;15.23;99900.03;5011106;28;1748;-74
2022/03/18 12:28:58;;;;;;;;;;;;;;;21.98;15.25;99912.63;4978454;28;928;-74
2022/03/18 12:31:23;;;;;;;;;;;;;;;22.15;14.87;99902.53;5024245;28;1019;-74
2022/03/18 12:33:59;;;;;;;;;;;;;;;21.49;15.37;99904.75;5037339;28;2029;-74
2022/03/18 12:36:27;;;;;;;;;;;;;;;21.31;15.75;99899.84;5057407;28;933;-74
2022/03/18 12:39:05;;;;;;;;;;;;;;;21.64;15.47;99895.09;5076331;28;1030;-74
2022/03/18 12:41:31;;;;;;;;;;;;;;;21.95;15.08;99898.44;5076334;28;1898;-74
2022/03/18 12:43:57;;;;;;;;;;;;;;;21.97;15.09;99896.81;5093717;28;1176;-74
2022/03/18 12:46:22;;;;;;;;;;;;;;;21.40;15.63;99901.47;5094063;28;1022;-74
2022/03/18 12:48:48;;;;;;;;;;;;;;;21.30;15.55;99892.56;5108944;28;1933;-74
2022/03/18 12:51:13;;;;;;;;;;;;;;;21.13;15.73;99913.03;5076929;28;2040;-74
2022/03/18 12:53:40;;;;;;;;;;;;;;;21.59;15.71;99909.66;5094099;28;956;-74
2022/03/18 12:56:16;;;;;;;;;;;;;;;22.02;15.22;99909.75;5064528;28;1005;-76
2022/03/18 12:58:46;;;;;;;;;;;;;;;21.75;15.37;99912.94;5056358;28;1137;-76
2022/03/18 13:01:12;;;;;;;;;;;;;;;21.79;15.51;99907.28;5039856;28;1905;-73
2022/03/18 13:03:48;;;;;;;;;;;;;;;22.25;14.97;99907.41;5073293;28;996;-72
2022/03/18 13:06:21;;;;;;;;;;;;;;;22.52;14.80;99926.88;5073529;28;1151;-72
2022/03/18 13:08:47;;;;;;;;;;;;;;;22.34;14.58;99921.19;5072503;28;1620;-73
2022/03/18 13:11:13;;;;;;;;;;;;;;;22.08;15.13;99930.84;5053045;28;1424;-72
2022/03/18 13:13:47;;;;;;;;;;;;;;;22.26;15.05;99928.88;5053374;28;1085;-73
2022/03/18 13:16:14;;;;;;;;;;;;;;;22.12;14.99;99926.00;5053301;28;1062;-72
2022/03/18 13:18:47;;;;;;;;;;;;;;;22.27;14.98;99927.66;5052992;28;1803;-73